createdAt,value
2019-03-22T00:01:39.184Z,10.90
2019-03-22T00:04:15.641Z,10.90
2019-03-22T00:06:48.844Z,10.80
2019-03-22T00:09:19.002Z,10.80
2019-03-22T00:11:49.300Z,10.80
2019-03-22T00:14:19.626Z,10.80
2019-03-22T00:16:49.620Z,10.80
2019-03-22T00:19:20.428Z,10.80
2019-03-22T00:21:51.760Z,10.60
2019-03-22T00:27:38.791Z,10.40
2019-03-22T00:30:22.939Z,10.60
2019-03-22T00:32:54.086Z,10.60
2019-03-22T00:35:26.347Z,10.70
2019-03-22T00:37:56.561Z,10.70
2019-03-22T00:40:26.860Z,10.70
2019-03-22T00:42:56.954Z,10.80
2019-03-22T00:45:26.994Z,10.50
2019-03-22T00:47:57.002Z,10.30
2019-03-22T00:50:27.042Z,10.00
2019-03-22T00:52:57.105Z,10.00
2019-03-22T00:55:27.118Z,10.10
2019-03-22T00:57:58.997Z,10.20
2019-03-22T01:00:29.401Z,10.30
2019-03-22T01:02:59.800Z,10.50
2019-03-22T01:05:29.943Z,10.50
2019-03-22T01:07:59.972Z,10.60
2019-03-22T01:10:30.080Z,10.80
2019-03-22T01:13:00.093Z,10.80
2019-03-22T01:15:30.087Z,10.70
2019-03-22T01:18:00.167Z,10.80
2019-03-22T01:20:30.179Z,10.80
2019-03-22T01:23:01.253Z,10.70
2019-03-22T01:25:32.910Z,10.70
2019-03-22T01:28:02.888Z,10.70
2019-03-22T01:30:32.966Z,10.70
2019-03-22T01:33:02.943Z,10.60
2019-03-22T01:35:33.149Z,10.60
2019-03-22T01:38:03.351Z,10.60
2019-03-22T01:40:33.457Z,10.60
2019-03-22T01:43:22.255Z,10.60
2019-03-22T01:45:52.475Z,10.80
2019-03-22T01:48:22.586Z,10.60
2019-03-22T01:50:55.544Z,10.40
2019-03-22T01:53:25.802Z,10.40
2019-03-22T01:55:58.217Z,10.10
2019-03-22T02:04:13.294Z,10.60
2019-03-22T02:06:43.794Z,10.60
2019-03-22T02:09:14.040Z,10.60
2019-03-22T02:11:44.339Z,10.60
2019-03-22T02:14:14.900Z,10.60
2019-03-22T02:16:54.837Z,10.70
2019-03-22T02:19:25.054Z,10.70
2019-03-22T02:22:04.565Z,10.90
2019-03-22T02:24:37.235Z,10.90
2019-03-22T02:27:07.532Z,10.80
2019-03-22T02:29:39.153Z,10.80
2019-03-22T02:34:59.319Z,10.70
2019-03-22T02:40:08.541Z,10.40
2019-03-22T02:42:39.086Z,10.40
2019-03-22T02:45:10.027Z,10.40
2019-03-22T02:47:40.411Z,10.50
2019-03-22T02:50:17.887Z,10.30
2019-03-22T02:52:42.655Z,10.30
2019-03-22T02:55:13.235Z,10.50
2019-03-22T02:57:43.242Z,10.60
2019-03-22T03:00:14.358Z,10.40
2019-03-22T03:02:44.521Z,10.20
2019-03-22T03:05:15.832Z,10.10
2019-03-22T03:07:45.904Z,10.00
2019-03-22T03:10:16.557Z,10.00
2019-03-22T03:12:46.735Z,10.30
2019-03-22T03:15:17.646Z,10.40
2019-03-22T03:17:53.996Z,10.30
2019-03-22T03:20:24.114Z,10.20
2019-03-22T03:22:54.212Z,10.10
2019-03-22T03:25:24.239Z,10.00
2019-03-22T03:27:54.258Z,9.90
2019-03-22T03:30:24.361Z,9.90
2019-03-22T03:32:54.422Z,9.80
2019-03-22T03:35:24.422Z,9.90
2019-03-22T03:37:54.497Z,9.90
2019-03-22T03:40:24.603Z,9.90
2019-03-22T03:42:54.683Z,10.00
2019-03-22T03:45:36.457Z,9.90
2019-03-22T03:48:08.585Z,9.70
2019-03-22T03:50:38.840Z,9.70
2019-03-22T03:53:09.041Z,9.80
2019-03-22T03:58:21.280Z,9.90
2019-03-22T04:00:51.557Z,9.90
2019-03-22T04:03:21.707Z,9.90
2019-03-22T04:05:51.737Z,9.90
2019-03-22T04:08:22.268Z,9.80
2019-03-22T04:10:52.527Z,9.80
2019-03-22T04:13:22.617Z,10.10
2019-03-22T04:15:52.627Z,10.20
2019-03-22T04:18:22.689Z,10.20
2019-03-22T04:20:53.059Z,10.10
2019-03-22T04:23:23.133Z,10.10
2019-03-22T04:31:15.521Z,10.30
2019-03-22T04:33:51.895Z,10.30
2019-03-22T04:36:21.987Z,10.20
2019-03-22T04:38:52.181Z,10.20
2019-03-22T04:41:22.294Z,10.10
2019-03-22T04:43:52.407Z,10.10
2019-03-22T04:46:22.677Z,10.10
2019-03-22T04:48:53.677Z,10.00
2019-03-22T04:51:24.710Z,10.10
2019-03-22T04:56:39.658Z,10.20
2019-03-22T04:59:18.949Z,10.30
2019-03-22T05:01:48.048Z,10.30
2019-03-22T05:04:21.108Z,10.30
2019-03-22T05:06:55.336Z,10.40
2019-03-22T05:09:30.237Z,10.40
2019-03-22T05:12:05.624Z,10.40
2019-03-22T05:14:38.513Z,10.40
2019-03-22T05:17:09.924Z,10.50
2019-03-22T05:19:43.404Z,10.50
2019-03-22T05:22:24.237Z,10.30
2019-03-22T05:24:57.387Z,10.30
2019-03-22T05:27:29.485Z,10.30
2019-03-22T05:30:01.731Z,10.30
2019-03-22T05:32:31.828Z,10.40
2019-03-22T05:35:01.898Z,10.40
2019-03-22T05:37:33.559Z,10.40
2019-03-22T05:40:03.724Z,10.20
2019-03-22T05:42:41.194Z,9.90
2019-03-22T05:45:11.511Z,9.90
2019-03-22T05:47:41.970Z,9.70
2019-03-22T05:50:12.111Z,9.60
2019-03-22T05:52:42.257Z,9.50
2019-03-22T05:55:12.508Z,9.50
2019-03-22T05:57:42.913Z,9.50
2019-03-22T06:00:14.770Z,9.60
2019-03-22T06:02:45.156Z,9.80
2019-03-22T06:05:15.308Z,9.70
2019-03-22T06:07:45.488Z,9.80
2019-03-22T06:10:16.521Z,9.70
2019-03-22T06:12:46.754Z,9.50
2019-03-22T06:15:17.730Z,9.40
2019-03-22T06:17:51.932Z,9.40
2019-03-22T06:20:19.533Z,9.40
2019-03-22T06:22:49.588Z,9.30
2019-03-22T06:25:19.707Z,9.30
2019-03-22T06:27:49.684Z,9.20
2019-03-22T06:30:20.175Z,9.10
2019-03-22T06:33:00.287Z,9.00
2019-03-22T06:35:30.307Z,9.10
2019-03-22T06:38:00.353Z,9.30
2019-03-22T06:40:30.473Z,9.30
2019-03-22T06:43:03.502Z,9.20
2019-03-22T06:45:33.635Z,9.20
2019-03-22T06:48:03.736Z,9.10
2019-03-22T06:50:33.707Z,9.00
2019-03-22T06:53:03.721Z,8.90
2019-03-22T06:55:33.740Z,9.00
2019-03-22T06:58:03.857Z,9.10
2019-03-22T07:00:33.887Z,9.10
2019-03-22T07:03:03.979Z,9.00
2019-03-22T07:05:33.963Z,9.10
2019-03-22T07:08:04.017Z,9.00
2019-03-22T07:10:34.018Z,9.00
2019-03-22T07:13:04.085Z,9.10
2019-03-22T07:15:34.071Z,9.10
2019-03-22T07:18:04.075Z,9.10
2019-03-22T07:20:34.116Z,9.20
2019-03-22T07:23:04.098Z,9.30
2019-03-22T07:25:34.110Z,9.30
2019-03-22T07:28:04.152Z,9.30
2019-03-22T07:30:34.196Z,9.20
2019-03-22T07:33:04.192Z,9.20
2019-03-22T07:35:34.366Z,9.20
2019-03-22T07:38:04.484Z,9.20
2019-03-22T07:40:34.537Z,9.20
2019-03-22T07:43:05.529Z,9.20
2019-03-22T07:45:35.534Z,9.20
2019-03-22T07:48:05.665Z,9.20
2019-03-22T07:50:35.668Z,9.30
2019-03-22T07:53:05.644Z,9.30
2019-03-22T07:55:35.711Z,9.20
2019-03-22T07:58:05.818Z,9.30
2019-03-22T08:00:35.872Z,9.30
2019-03-22T08:03:05.837Z,9.20
2019-03-22T08:05:36.306Z,9.10
2019-03-22T08:08:06.320Z,9.20
2019-03-22T08:10:37.441Z,9.00
2019-03-22T08:13:07.532Z,9.20
2019-03-22T08:15:37.960Z,9.20
2019-03-22T08:18:07.991Z,9.20
2019-03-22T08:20:38.931Z,9.40
2019-03-22T08:23:21.004Z,9.60
2019-03-22T08:25:51.228Z,9.70
2019-03-22T08:28:21.300Z,9.60
2019-03-22T08:30:51.382Z,9.40
2019-03-22T08:33:22.056Z,9.60
2019-03-22T08:35:52.321Z,9.60
2019-03-22T08:38:22.408Z,9.60
2019-03-22T08:40:53.036Z,9.70
2019-03-22T08:43:23.063Z,9.60
2019-03-22T08:45:53.200Z,9.50
2019-03-22T08:48:23.154Z,9.30
2019-03-22T08:50:54.866Z,9.50
2019-03-22T08:53:25.002Z,9.60
2019-03-22T08:55:55.016Z,9.60
2019-03-22T08:58:25.163Z,9.80
2019-03-22T09:00:57.780Z,10.00
2019-03-22T09:03:27.147Z,10.30
2019-03-22T09:05:57.198Z,10.30
2019-03-22T09:08:27.181Z,10.30
2019-03-22T09:10:58.056Z,10.40
2019-03-22T09:13:28.198Z,10.40
2019-03-22T09:15:58.390Z,10.80
2019-03-22T09:18:29.726Z,11.20
2019-03-22T09:20:59.854Z,11.30
2019-03-22T09:23:29.931Z,11.50
2019-03-22T09:26:00.145Z,11.40
2019-03-22T09:28:30.780Z,11.40
2019-03-22T09:31:10.320Z,11.20
2019-03-22T09:33:33.034Z,11.30
2019-03-22T09:36:03.095Z,11.80
2019-03-22T09:38:33.198Z,12.20
2019-03-22T09:41:03.445Z,12.90
2019-03-22T09:43:33.662Z,13.60
2019-03-22T09:46:03.767Z,14.10
2019-03-22T09:48:33.864Z,15.00
2019-03-22T09:51:04.089Z,15.50
2019-03-22T09:53:34.283Z,15.00
2019-03-22T09:56:04.641Z,15.30
2019-03-22T09:58:34.722Z,15.80
2019-03-22T10:01:04.989Z,16.00
2019-03-22T10:03:35.228Z,15.70
2019-03-22T10:06:06.273Z,15.40
2019-03-22T10:08:37.688Z,15.30
2019-03-22T10:11:07.940Z,16.90
2019-03-22T10:13:37.997Z,18.20
2019-03-22T10:16:08.150Z,18.10
2019-03-22T10:18:38.285Z,17.70
2019-03-22T10:21:21.499Z,19.00
2019-03-22T10:23:40.459Z,20.40
2019-03-22T10:26:10.549Z,21.30
2019-03-22T10:28:40.556Z,21.50
2019-03-22T10:31:10.706Z,21.30
2019-03-22T10:33:40.820Z,21.20
2019-03-22T10:36:11.042Z,22.00
2019-03-22T10:38:41.262Z,22.50
2019-03-22T10:41:11.437Z,23.70
2019-03-22T10:43:41.531Z,22.60
2019-03-22T10:46:11.610Z,22.20
2019-03-22T10:48:41.689Z,22.80
2019-03-22T10:51:11.897Z,23.00
2019-03-22T10:53:41.910Z,23.00
2019-03-22T10:56:11.848Z,25.00
2019-03-22T10:58:41.890Z,25.00
2019-03-22T11:01:12.093Z,24.50
2019-03-22T11:03:42.092Z,24.10
2019-03-22T11:06:12.160Z,24.40
2019-03-22T11:08:42.297Z,25.10
2019-03-22T11:11:12.284Z,25.20
2019-03-22T11:13:45.325Z,25.90
2019-03-22T11:16:15.329Z,26.20
2019-03-22T11:18:45.597Z,26.70
2019-03-22T11:21:15.631Z,26.80
2019-03-22T11:23:45.664Z,26.80
2019-03-22T11:26:16.386Z,27.50
2019-03-22T11:28:46.434Z,27.90
2019-03-22T11:31:16.435Z,26.40
2019-03-22T11:33:46.548Z,26.40
2019-03-22T11:36:16.812Z,27.70
2019-03-22T11:38:46.835Z,28.70
2019-03-22T11:41:17.124Z,29.00
2019-03-22T11:43:47.116Z,29.80
2019-03-22T11:46:17.190Z,30.70
2019-03-22T11:48:49.318Z,30.90
2019-03-22T11:51:19.252Z,31.30
2019-03-22T11:53:49.297Z,31.70
2019-03-22T11:56:19.336Z,32.50
2019-03-22T11:58:49.366Z,31.90
2019-03-22T12:01:22.240Z,32.00
2019-03-22T12:03:51.063Z,32.80
2019-03-22T12:06:21.100Z,32.60
2019-03-22T12:08:51.135Z,34.10
2019-03-22T12:11:22.441Z,34.50
2019-03-22T12:13:52.553Z,33.90
2019-03-22T12:16:22.815Z,33.70
2019-03-22T12:18:52.847Z,34.30
2019-03-22T12:21:23.100Z,34.60
2019-03-22T12:23:53.086Z,34.50
2019-03-22T12:26:23.092Z,34.50
2019-03-22T12:28:53.084Z,34.50
2019-03-22T12:31:23.048Z,35.20
2019-03-22T12:33:53.043Z,36.50
2019-03-22T12:36:23.041Z,36.60
2019-03-22T12:38:53.038Z,36.00
2019-03-22T12:41:22.938Z,36.30
2019-03-22T12:43:52.925Z,35.50
2019-03-22T12:46:23.086Z,35.20
2019-03-22T12:48:53.016Z,35.40
2019-03-22T12:51:22.938Z,35.00
2019-03-22T12:53:53.387Z,35.20
2019-03-22T12:56:23.331Z,35.00
2019-03-22T12:58:53.343Z,35.10
2019-03-22T13:01:23.556Z,35.00
2019-03-22T13:03:54.262Z,35.40
2019-03-22T13:06:24.223Z,35.80
2019-03-22T13:08:54.367Z,36.20
2019-03-22T13:11:24.311Z,36.00
2019-03-22T13:13:54.280Z,35.30
2019-03-22T13:16:24.347Z,35.80
2019-03-22T13:18:54.319Z,36.00
2019-03-22T13:21:24.431Z,36.40
2019-03-22T13:23:54.533Z,36.40
2019-03-22T13:26:24.528Z,36.10
2019-03-22T13:28:54.448Z,35.90
2019-03-22T13:31:24.391Z,36.00
2019-03-22T13:33:54.407Z,36.30
2019-03-22T13:36:24.371Z,36.50
2019-03-22T13:38:54.293Z,36.50
2019-03-22T13:41:24.289Z,35.40
2019-03-22T13:43:54.271Z,34.90
2019-03-22T13:46:24.292Z,35.00
2019-03-22T13:48:54.280Z,35.50
2019-03-22T13:51:24.223Z,36.70
2019-03-22T13:53:54.367Z,36.30
2019-03-22T13:56:24.673Z,35.70
2019-03-22T13:58:55.455Z,35.60
2019-03-22T14:01:25.414Z,35.90
2019-03-22T14:03:55.391Z,36.10
2019-03-22T14:06:25.462Z,35.60
2019-03-22T14:08:55.484Z,35.00
2019-03-22T14:11:25.511Z,34.40
2019-03-22T14:13:56.598Z,34.70
2019-03-22T14:16:26.601Z,35.10
2019-03-22T14:18:56.679Z,35.00
2019-03-22T14:21:26.761Z,35.10
2019-03-22T14:23:56.712Z,34.70
2019-03-22T14:26:26.693Z,34.90
2019-03-22T14:28:56.809Z,35.00
2019-03-22T14:31:26.847Z,35.10
2019-03-22T14:33:56.845Z,34.60
2019-03-22T14:36:26.876Z,34.30
2019-03-22T14:38:57.002Z,34.50
2019-03-22T14:41:26.948Z,34.10
2019-03-22T14:43:57.141Z,33.20
2019-03-22T14:46:27.055Z,32.80
2019-03-22T14:48:57.068Z,32.80
2019-03-22T14:51:27.086Z,33.10
2019-03-22T14:53:57.082Z,33.10
2019-03-22T14:56:27.091Z,32.10
2019-03-22T14:58:57.343Z,31.30
2019-03-22T15:01:27.419Z,30.50
2019-03-22T15:03:57.514Z,30.40
2019-03-22T15:06:27.485Z,30.50
2019-03-22T15:08:57.537Z,29.80
2019-03-22T15:11:27.537Z,29.80
2019-03-22T15:14:12.526Z,28.90
2019-03-22T15:17:11.858Z,27.80
2019-03-22T15:20:13.032Z,27.40
2019-03-22T15:23:04.949Z,26.30
2019-03-22T15:26:02.977Z,26.20
2019-03-22T15:28:51.943Z,25.40
2019-03-22T15:31:40.879Z,24.30
2019-03-22T15:34:24.452Z,23.90
2019-03-22T15:37:12.243Z,23.60
2019-03-22T15:40:13.266Z,23.00
2019-03-22T15:42:43.317Z,22.70
2019-03-22T15:45:14.683Z,22.70
2019-03-22T15:47:44.828Z,22.20
2019-03-22T15:50:15.848Z,21.90
2019-03-22T15:52:45.978Z,21.40
2019-03-22T15:55:16.038Z,21.20
2019-03-22T15:57:46.137Z,20.70
2019-03-22T16:00:17.798Z,20.20
2019-03-22T16:02:47.878Z,19.40
2019-03-22T16:05:17.916Z,19.10
2019-03-22T16:07:48.043Z,18.70
2019-03-22T16:10:18.438Z,18.10
2019-03-22T16:12:48.524Z,17.30
2019-03-22T16:15:18.744Z,16.90
2019-03-22T16:17:48.764Z,16.20
2019-03-22T16:20:19.251Z,15.80
2019-03-22T16:22:49.315Z,15.50
2019-03-22T16:25:19.326Z,14.80
2019-03-22T16:27:49.869Z,14.60
2019-03-22T16:30:20.320Z,14.50
2019-03-22T16:32:50.478Z,14.20
2019-03-22T16:35:20.511Z,14.10
2019-03-22T16:37:50.483Z,14.20
2019-03-22T16:40:24.344Z,13.70
2019-03-22T16:42:52.263Z,13.60
2019-03-22T16:45:42.022Z,13.50
2019-03-22T16:48:12.167Z,13.20
2019-03-22T16:50:42.382Z,13.20
2019-03-22T16:53:12.533Z,12.90
2019-03-22T16:55:42.684Z,12.70
2019-03-22T16:58:12.638Z,12.70
2019-03-22T17:00:42.701Z,12.20
2019-03-22T17:03:12.822Z,12.00
2019-03-22T17:05:43.128Z,12.10
2019-03-22T17:08:13.199Z,12.20
2019-03-22T17:10:46.521Z,12.10
2019-03-22T17:13:17.144Z,12.40
2019-03-22T17:15:47.389Z,12.40
2019-03-22T17:18:17.426Z,12.40
2019-03-22T17:20:47.465Z,12.60
2019-03-22T17:23:17.735Z,12.50
2019-03-22T17:25:47.904Z,12.70
2019-03-22T17:28:18.335Z,12.50
2019-03-22T17:30:48.441Z,12.60
2019-03-22T17:33:18.601Z,12.60
2019-03-22T17:35:48.638Z,12.70
2019-03-22T17:38:18.840Z,12.80
2019-03-22T17:40:48.847Z,12.80
2019-03-22T17:43:23.666Z,12.70
2019-03-22T17:45:53.658Z,12.70
2019-03-22T17:48:23.867Z,12.60
2019-03-22T17:50:53.987Z,12.70
2019-03-22T17:53:24.129Z,12.70
2019-03-22T17:55:54.301Z,12.60
2019-03-22T17:58:24.444Z,12.40
2019-03-22T18:00:54.731Z,12.30
2019-03-22T18:03:24.750Z,12.10
2019-03-22T18:05:54.786Z,12.30
2019-03-22T18:08:24.938Z,12.30
2019-03-22T18:10:55.096Z,12.10
2019-03-22T18:13:25.149Z,12.10
2019-03-22T18:15:55.242Z,12.10
2019-03-22T18:18:27.527Z,12.00
2019-03-22T18:20:57.521Z,11.90
2019-03-22T18:23:35.496Z,11.90
2019-03-22T18:25:59.239Z,11.90
2019-03-22T18:28:29.346Z,11.80
2019-03-22T18:30:59.407Z,11.70
2019-03-22T18:33:29.435Z,11.40
2019-03-22T18:35:59.516Z,11.60
2019-03-22T18:38:29.681Z,11.50
2019-03-22T18:40:59.834Z,11.30
2019-03-22T18:43:29.879Z,11.00
2019-03-22T18:46:00.211Z,10.80
2019-03-22T18:48:30.309Z,10.70
2019-03-22T18:51:00.508Z,10.70
2019-03-22T18:53:30.763Z,10.60
2019-03-22T18:56:00.733Z,10.60
2019-03-22T18:58:30.735Z,10.50
2019-03-22T19:01:03.389Z,10.40
2019-03-22T19:03:33.358Z,10.30
2019-03-22T19:06:03.392Z,10.30
2019-03-22T19:08:33.533Z,10.40
2019-03-22T19:11:03.716Z,10.50
2019-03-22T19:13:34.233Z,10.60
2019-03-22T19:16:04.744Z,10.30
2019-03-22T19:18:34.841Z,10.30
2019-03-22T19:21:09.201Z,10.30
2019-03-22T19:23:39.331Z,10.40
2019-03-22T19:26:09.476Z,10.30
2019-03-22T19:28:39.522Z,10.10
2019-03-22T19:31:09.721Z,10.00
2019-03-22T19:33:39.776Z,10.00
2019-03-22T19:36:09.879Z,10.30
2019-03-22T19:38:40.111Z,10.40
2019-03-22T19:41:10.223Z,10.50
2019-03-22T19:43:41.767Z,10.60
2019-03-22T19:46:11.789Z,10.40
2019-03-22T19:48:41.798Z,10.50
2019-03-22T19:51:11.853Z,10.60
2019-03-22T19:53:41.942Z,10.50
2019-03-22T19:56:12.013Z,10.50
2019-03-22T19:58:42.413Z,10.60
2019-03-22T20:01:12.539Z,10.50
2019-03-22T20:03:42.645Z,10.70
2019-03-22T20:06:23.883Z,10.60
2019-03-22T20:08:54.032Z,10.70
2019-03-22T20:11:24.230Z,10.70
2019-03-22T20:13:55.278Z,10.70
2019-03-22T20:16:25.492Z,10.70
2019-03-22T20:18:55.838Z,10.70
2019-03-22T20:21:25.933Z,10.60
2019-03-22T20:23:56.085Z,10.50
2019-03-22T20:26:26.272Z,10.60
2019-03-22T20:28:56.349Z,10.60
2019-03-22T20:31:26.342Z,10.60
2019-03-22T20:33:56.515Z,10.60
2019-03-22T20:36:27.007Z,10.60
2019-03-22T20:38:57.193Z,10.70
2019-03-22T20:41:28.689Z,10.70
2019-03-22T20:43:58.854Z,10.80
2019-03-22T20:46:28.862Z,10.70
2019-03-22T20:48:58.947Z,10.70
2019-03-22T20:51:28.944Z,10.80
2019-03-22T20:53:59.077Z,10.80
2019-03-22T20:56:29.073Z,10.70
2019-03-22T20:58:59.155Z,10.70
2019-03-22T21:01:29.316Z,10.80
2019-03-22T21:03:59.402Z,10.80
2019-03-22T21:06:29.421Z,10.80
2019-03-22T21:08:59.599Z,10.80
2019-03-22T21:11:30.537Z,10.80
2019-03-22T21:14:00.628Z,10.80
2019-03-22T21:16:31.074Z,10.90
2019-03-22T21:19:01.225Z,10.90
2019-03-22T21:21:36.224Z,10.90
2019-03-22T21:24:03.139Z,10.70
2019-03-22T21:26:33.378Z,10.70
2019-03-22T21:29:03.420Z,10.80
2019-03-22T21:31:33.444Z,10.80
2019-03-22T21:34:09.610Z,10.80
2019-03-22T21:36:39.800Z,10.70
2019-03-22T21:39:15.109Z,10.70
2019-03-22T21:41:45.224Z,10.70
2019-03-22T21:44:15.310Z,10.60
2019-03-22T21:46:45.375Z,10.60
2019-03-22T21:49:15.335Z,10.60
2019-03-22T21:51:45.670Z,10.60
2019-03-22T21:54:15.715Z,10.60
2019-03-22T21:56:45.697Z,10.60
2019-03-22T21:59:15.689Z,10.70
2019-03-22T22:01:45.840Z,10.70
2019-03-22T22:04:15.933Z,10.70
2019-03-22T22:06:47.760Z,10.70
2019-03-22T22:09:17.791Z,10.80
2019-03-22T22:11:48.157Z,10.70
2019-03-22T22:14:58.832Z,10.70
2019-03-22T22:17:29.889Z,10.80
2019-03-22T22:20:01.014Z,10.90
2019-03-22T22:22:31.095Z,10.90
2019-03-22T22:25:01.192Z,10.90
2019-03-22T22:27:31.316Z,11.10
2019-03-22T22:30:01.391Z,11.00
2019-03-22T22:32:32.999Z,11.10
2019-03-22T22:35:03.277Z,11.20
2019-03-22T22:37:33.682Z,11.20
2019-03-22T22:40:06.556Z,11.30
2019-03-22T22:42:36.932Z,11.30
2019-03-22T22:45:08.969Z,11.30
2019-03-22T22:47:39.011Z,11.20
2019-03-22T22:50:09.248Z,11.20
2019-03-22T22:52:39.517Z,11.20
2019-03-22T22:55:09.748Z,11.20
2019-03-22T22:57:39.879Z,11.30
2019-03-22T23:00:13.796Z,11.30
2019-03-22T23:02:44.251Z,11.30
2019-03-22T23:05:14.308Z,11.30
2019-03-22T23:07:45.592Z,11.40
2019-03-22T23:10:16.887Z,11.30
2019-03-22T23:12:47.299Z,11.40
2019-03-22T23:15:17.470Z,11.40
2019-03-22T23:17:47.502Z,11.20
2019-03-22T23:20:17.619Z,11.30
2019-03-22T23:22:47.730Z,11.50
2019-03-22T23:25:17.805Z,11.40
2019-03-22T23:27:48.243Z,11.30
2019-03-22T23:30:18.603Z,11.40
2019-03-22T23:32:48.739Z,11.40
2019-03-22T23:35:18.823Z,11.30
2019-03-22T23:37:49.045Z,11.30
2019-03-22T23:40:19.032Z,11.30
2019-03-22T23:42:49.175Z,11.40
2019-03-22T23:45:19.274Z,11.40
2019-03-22T23:47:49.312Z,11.50
2019-03-22T23:50:19.415Z,11.50
2019-03-22T23:52:49.484Z,11.50
2019-03-22T23:55:20.051Z,11.60
2019-03-22T23:57:50.230Z,11.70
